KPBI/PBI METAR and TAF weather

Enter ICAO airport designator
Station Type Date Time Source
KPBI METAR 2019/10/21 01:53 UTC NOAA

KPBI 210153Z 00000KT 10SM BKN085 28/23 A2997 RMK AO2 SLP148 T02830228


Station Type Date Time Source
KPBI Decoded METAR 2019/10/21 01:53 UTC NOAA

PALM BEACH INTERNATIONAL, FL, United States (KPBI) 26-41N 80-06W 6M
Oct 20, 2019 - 09:53 PM EDT / 2019.10.21 0153 UTC
Wind: Calm:0
Visibility: 10 mile(s):0
Sky conditions: mostly cloudy
Temperature: 82.9 F (28.3 C)
Dew Point: 73.0 F (22.8 C)
Relative Humidity: 72%
Pressure (altimeter): 29.97 in. Hg (1014 hPa)
ob: KPBI 210153Z 00000KT 10SM BKN085 28/23 A2997 RMK AO2 SLP148 T02830228
cycle: 2

Station Type Date Time Source
KPBI TAF 2019/10/20 21:57 UTC NOAA

TAF
AMD KPBI 202055Z 2021/2118 25008KT P6SM SCT030 BKN070
FM210100 VRB03KT P6SM FEW050 SCT250
FM211400 15008KT P6SM SCT035

Example: see airport list